Time;durP1;ratioP1;P1;durP2;ratioP2;P2;SDS_P1;SDS_P2;PMS_P1;PMS_P2;Temp;Humidity;BMP_temperature;BMP_pressure;BME280_temperature;BME280_humidity;BME280_pressure;Samples;Min_cycle;Max_cycle;Signal;HPM_P1;HPM_P2
2021/10/13 00:01:38;;;;;;;26.65;20.48;;;;;;;17.01;61.77;100793.49;1736592;82;21074;-51
2021/10/13 00:04:05;;;;;;;23.80;20.15;;;;;;;17.04;61.65;100801.25;1738598;82;21462;-51
2021/10/13 00:06:32;;;;;;;28.62;21.02;;;;;;;17.06;61.41;100798.09;1738061;82;21054;-50
2021/10/13 00:08:58;;;;;;;24.55;20.30;;;;;;;17.07;61.33;100795.83;1742442;82;20999;-51
2021/10/13 00:11:25;;;;;;;20.97;18.25;;;;;;;17.09;61.11;100793.98;1737513;82;21507;-52
2021/10/13 00:13:53;;;;;;;24.40;19.00;;;;;;;17.07;60.97;100793.20;1738025;82;21471;-51
2021/10/13 00:16:20;;;;;;;24.20;19.75;;;;;;;17.04;60.84;100789.42;1724880;82;21077;-52
2021/10/13 00:18:46;;;;;;;24.92;19.27;;;;;;;16.99;60.82;100778.25;1735435;82;21057;-52
2021/10/13 00:21:13;;;;;;;23.42;18.52;;;;;;;16.94;60.91;100777.61;1737254;82;21023;-53
2021/10/13 00:23:41;;;;;;;23.70;19.17;;;;;;;16.90;60.99;100777.36;1733886;82;21576;-51
2021/10/13 00:26:08;;;;;;;28.87;19.67;;;;;;;16.86;61.04;100772.72;1740032;82;21519;-50
2021/10/13 00:28:36;;;;;;;26.45;19.42;;;;;;;16.86;61.09;100775.80;1733638;82;21015;-51
2021/10/13 00:31:03;;;;;;;25.40;19.82;;;;;;;16.85;60.98;100776.75;1735079;82;21506;-50
2021/10/13 00:33:29;;;;;;;28.75;19.07;;;;;;;16.86;61.06;100773.18;1735823;81;20974;-51
2021/10/13 00:35:58;;;;;;;23.18;18.92;;;;;;;16.85;61.01;100774.98;1735344;82;21585;-51
2021/10/13 00:38:25;;;;;;;25.90;19.65;;;;;;;16.87;60.97;100776.21;1731517;82;21112;-52
2021/10/13 00:40:52;;;;;;;24.52;19.35;;;;;;;16.87;60.94;100769.19;1738499;82;21050;-51
2021/10/13 00:43:19;;;;;;;24.40;19.52;;;;;;;16.87;60.80;100770.95;1737596;82;20987;-53
2021/10/13 00:45:46;;;;;;;22.73;19.65;;;;;;;16.84;60.77;100771.08;1735896;82;21542;-52
2021/10/13 00:48:12;;;;;;;22.75;18.98;;;;;;;16.82;60.76;100770.30;1734479;82;20991;-53
2021/10/13 00:50:39;;;;;;;26.62;20.62;;;;;;;16.80;60.82;100773.47;1734467;82;20991;-52
2021/10/13 00:53:05;;;;;;;26.45;19.42;;;;;;;16.79;60.85;100769.16;1749231;82;21066;-51
2021/10/13 00:55:32;;;;;;;25.37;20.23;;;;;;;16.78;60.85;100764.80;1737585;82;21066;-52
2021/10/13 00:57:58;;;;;;;24.57;19.77;;;;;;;16.81;60.86;100772.56;1733737;82;21059;-53
2021/10/13 01:00:25;;;;;;;26.17;19.05;;;;;;;16.81;60.73;100771.25;1740927;82;21054;-51
2021/10/13 01:03:17;;;;;;;22.52;19.98;;;;;;;16.78;60.79;100772.23;1737153;82;21031;-51
2021/10/13 01:06:01;;;;;;;26.82;19.12;;;;;;;16.76;60.77;100771.91;1738718;82;21018;-51
2021/10/13 01:08:55;;;;;;;23.60;19.95;;;;;;;16.76;60.82;100771.91;1738454;82;21487;-53
2021/10/13 01:11:30;;;;;;;25.85;20.12;;;;;;;16.75;60.89;100771.53;1734632;82;21026;-51
2021/10/13 01:14:30;;;;;;;24.50;19.77;;;;;;;16.77;60.91;100771.00;1733800;82;21058;-53
2021/10/13 01:17:10;;;;;;;22.82;18.92;;;;;;;16.78;60.83;100770.06;1742222;82;21018;-52
2021/10/13 01:19:51;;;;;;;25.70;19.50;;;;;;;16.78;60.73;100764.80;1727690;82;21031;-53
2021/10/13 01:22:48;;;;;;;23.38;19.98;;;;;;;16.76;60.75;100761.40;1736038;82;21025;-53
2021/10/13 01:25:29;;;;;;;23.07;20.55;;;;;;;16.75;60.83;100762.34;1725359;82;21063;-52
2021/10/13 01:28:00;;;;;;;23.27;19.60;;;;;;;16.76;60.87;100753.52;1733007;82;20991;-51
2021/10/13 01:30:36;;;;;;;23.67;18.90;;;;;;;16.73;60.73;100749.25;1722986;83;21014;-52
2021/10/13 01:33:07;;;;;;;24.72;20.32;;;;;;;16.73;60.79;100756.30;1715878;83;21089;-54
2021/10/13 01:35:35;;;;;;;27.35;19.32;;;;;;;16.72;60.85;100754.58;1724877;83;21053;-53
2021/10/13 01:38:06;;;;;;;26.48;20.68;;;;;;;16.69;60.94;100756.88;1726823;83;21093;-52
2021/10/13 01:40:33;;;;;;;25.70;20.30;;;;;;;16.69;60.91;100758.69;1727736;83;21534;-51
2021/10/13 01:43:02;;;;;;;24.90;20.17;;;;;;;16.66;61.04;100760.13;1727744;83;21029;-52
2021/10/13 01:45:29;;;;;;;24.95;19.98;;;;;;;16.64;61.06;100760.66;1723893;83;21034;-53
2021/10/13 01:47:56;;;;;;;25.45;19.77;;;;;;;16.61;61.15;100756.88;1727856;83;20999;-52
2021/10/13 01:50:23;;;;;;;24.67;19.92;;;;;;;16.61;61.15;100759.02;1713041;83;21126;-52
2021/10/13 01:52:50;;;;;;;21.00;18.75;;;;;;;16.61;61.18;100756.88;1713967;83;21006;-52
2021/10/13 01:55:19;;;;;;;21.82;18.60;;;;;;;16.59;61.19;100756.09;1703087;83;21054;-52
2021/10/13 01:57:48;;;;;;;27.40;20.23;;;;;;;16.58;61.22;100754.38;1728162;83;21042;-53
2021/10/13 02:00:16;;;;;;;23.22;19.67;;;;;;;16.54;61.28;100751.50;1725868;83;20975;-52
2021/10/13 02:02:42;;;;;;;20.30;18.07;;;;;;;16.52;61.39;100746.78;1727958;83;21026;-52
2021/10/13 02:05:09;;;;;;;21.77;19.10;;;;;;;16.49;61.41;100735.95;1703111;83;21061;-52
2021/10/13 02:07:38;;;;;;;23.02;20.48;;;;;;;16.46;61.58;100731.28;1718555;83;21018;-52
2021/10/13 02:10:08;;;;;;;24.52;19.92;;;;;;;16.42;61.66;100733.66;1727602;83;21104;-53
2021/10/13 02:12:36;;;;;;;23.25;18.37;;;;;;;16.36;61.79;100730.00;1703014;83;21481;-52
2021/10/13 02:15:05;;;;;;;22.02;19.17;;;;;;;16.29;61.85;100726.34;1713634;83;20978;-52
2021/10/13 02:17:33;;;;;;;28.62;20.40;;;;;;;16.24;62.02;100729.63;1713512;83;21013;-51
2021/10/13 02:20:01;;;;;;;23.32;19.85;;;;;;;16.20;62.16;100730.69;1715834;83;21049;-52
2021/10/13 02:22:28;;;;;;;22.22;19.82;;;;;;;16.16;62.34;100728.26;1704378;83;21085;-53
2021/10/13 02:24:54;;;;;;;25.40;20.50;;;;;;;16.13;62.42;100724.02;1724115;83;21069;-54
2021/10/13 02:27:30;;;;;;;24.65;20.08;;;;;;;16.09;62.57;100727.67;1721266;83;21066;-52
2021/10/13 02:29:57;;;;;;;23.50;20.72;;;;;;;16.06;62.66;100725.20;1692106;85;21561;-52
2021/10/13 02:32:24;;;;;;;24.27;21.05;;;;;;;16.04;62.79;100734.06;1678370;85;21066;-53
2021/10/13 02:34:51;;;;;;;26.42;20.77;;;;;;;16.01;62.89;100732.41;1744491;82;21051;-53
2021/10/13 02:37:18;;;;;;;24.75;20.97;;;;;;;15.99;62.92;100729.01;1737888;82;21070;-53
2021/10/13 02:39:45;;;;;;;23.15;19.80;;;;;;;15.97;63.19;100729.53;1738464;82;21582;-53
2021/10/13 02:42:11;;;;;;;25.77;20.85;;;;;;;15.97;63.32;100736.09;1737468;81;21090;-53
2021/10/13 02:44:38;;;;;;;24.20;20.90;;;;;;;15.96;63.44;100737.03;1738207;82;20959;-56
2021/10/13 02:47:25;;;;;;;24.75;21.07;;;;;;;15.93;63.27;100741.58;1740638;82;22333;-53
2021/10/13 02:50:22;;;;;;;21.73;19.32;;;;;;;15.89;63.34;100746.08;1734951;82;21050;-53
2021/10/13 02:53:10;;;;;;;22.87;19.35;;;;;;;15.87;63.44;100742.67;1736725;82;21073;-54
2021/10/13 02:55:46;;;;;;;26.55;21.15;;;;;;;15.87;63.47;100741.36;1737711;81;21030;-53
2021/10/13 02:58:21;;;;;;;22.58;20.15;;;;;;;15.84;63.54;100743.27;1678867;85;21512;-53
2021/10/13 03:00:50;;;;;;;28.35;21.27;;;;;;;15.82;63.60;100730.23;1679891;85;21042;-53
2021/10/13 03:03:22;;;;;;;27.45;20.82;;;;;;;15.81;63.63;100736.38;1679693;85;21020;-53
2021/10/13 03:05:49;;;;;;;22.20;19.77;;;;;;;15.80;63.77;100738.63;1662859;85;21120;-52
2021/10/13 03:08:20;;;;;;;26.17;21.12;;;;;;;15.78;63.88;100739.16;1678741;85;21060;-53
2021/10/13 03:10:47;;;;;;;25.15;20.80;;;;;;;15.77;63.92;100733.50;1678873;85;21074;-52
2021/10/13 03:13:17;;;;;;;29.45;23.98;;;;;;;15.73;63.97;100734.55;1679400;85;21622;-53
2021/10/13 03:15:44;;;;;;;25.23;20.35;;;;;;;15.71;64.01;100731.14;1679335;85;21578;-53
2021/10/13 03:18:13;;;;;;;22.50;20.15;;;;;;;15.70;64.17;100734.70;1679266;85;21049;-53
2021/10/13 03:20:39;;;;;;;26.33;22.13;;;;;;;15.69;64.30;100732.98;1679579;85;21009;-53
2021/10/13 03:23:06;;;;;;;23.73;21.05;;;;;;;15.72;64.35;100732.00;1681969;85;21472;-53
2021/10/13 03:25:33;;;;;;;26.90;21.50;;;;;;;15.75;64.29;100737.95;1679374;85;21031;-53
2021/10/13 03:28:01;;;;;;;24.15;20.90;;;;;;;15.77;64.23;100742.67;1678926;85;20961;-53
2021/10/13 03:30:28;;;;;;;24.47;20.48;;;;;;;15.79;64.06;100740.84;1678810;85;21432;-54
2021/10/13 03:32:55;;;;;;;23.50;20.25;;;;;;;15.80;63.96;100740.39;1679633;85;21595;-53
2021/10/13 03:35:28;;;;;;;27.17;20.50;;;;;;;15.81;64.03;100737.69;1709041;82;21046;-54
2021/10/13 03:37:56;;;;;;;26.35;20.50;;;;;;;15.82;64.09;100742.03;1679254;85;21723;-54
2021/10/13 03:40:24;;;;;;;23.77;20.00;;;;;;;15.81;64.00;100737.69;1675085;85;21685;-56
2021/10/13 03:42:50;;;;;;;26.33;20.37;;;;;;;15.80;64.03;100739.94;1670950;85;21543;-55
2021/10/13 03:45:20;;;;;;;25.48;21.02;;;;;;;15.77;64.11;100734.81;1672133;85;21026;-51
2021/10/13 03:47:46;;;;;;;25.62;21.33;;;;;;;15.75;64.11;100735.33;1673710;85;21006;-56
2021/10/13 03:50:16;;;;;;;25.92;20.80;;;;;;;15.73;64.13;100733.23;1673702;85;21031;-56
2021/10/13 03:52:43;;;;;;;28.10;20.65;;;;;;;15.71;64.17;100739.01;1673917;85;21050;-56
2021/10/13 03:55:13;;;;;;;24.15;20.60;;;;;;;15.70;64.17;100738.63;1673583;85;21554;-55
2021/10/13 03:57:40;;;;;;;26.30;21.05;;;;;;;15.69;64.22;100740.84;1674079;85;22210;-55
2021/10/13 04:00:10;;;;;;;23.57;20.95;;;;;;;15.69;64.29;100746.09;1672478;85;21486;-56
2021/10/13 04:02:38;;;;;;;22.95;20.50;;;;;;;15.71;64.32;100749.95;1672553;85;21062;-56
2021/10/13 04:05:07;;;;;;;27.15;21.40;;;;;;;15.71;64.26;100746.88;1673322;85;21094;-56
2021/10/13 04:07:33;;;;;;;24.92;21.65;;;;;;;15.71;64.27;100742.95;1672520;85;21054;-57
2021/10/13 04:10:01;;;;;;;26.50;21.57;;;;;;;15.71;64.28;100745.56;1672594;85;21030;-56
2021/10/13 04:12:29;;;;;;;27.85;21.40;;;;;;;15.70;64.36;100745.19;1671551;85;21031;-56
2021/10/13 04:14:57;;;;;;;26.60;22.05;;;;;;;15.71;64.46;100746.88;1672416;85;21116;-57
2021/10/13 04:17:23;;;;;;;25.92;22.17;;;;;;;15.72;64.38;100747.29;1673495;85;21090;-58
2021/10/13 04:19:50;;;;;;;25.37;21.90;;;;;;;15.73;64.36;100748.12;1674040;85;21058;-59
2021/10/13 04:22:17;;;;;;;28.55;22.45;;;;;;;15.73;64.39;100750.29;1673863;85;22485;-59
2021/10/13 04:24:44;;;;;;;26.75;21.42;;;;;;;15.74;64.31;100746.77;1673527;85;21062;-60
2021/10/13 04:27:10;;;;;;;28.00;23.52;;;;;;;15.75;64.29;100745.83;1673201;85;20964;-59
2021/10/13 04:29:36;;;;;;;27.45;23.25;;;;;;;15.76;64.31;100746.23;1671968;85;21546;-59
2021/10/13 04:32:04;;;;;;;24.47;21.85;;;;;;;15.76;64.27;100744.92;1671885;85;21070;-60
2021/10/13 04:34:31;;;;;;;24.43;21.68;;;;;;;15.75;64.18;100749.77;1707403;82;21014;-60
2021/10/13 04:36:58;;;;;;;26.37;21.77;;;;;;;15.74;64.19;100749.39;1737506;82;21109;-60
2021/10/13 04:39:24;;;;;;;30.80;23.22;;;;;;;15.73;64.25;100751.59;1737596;82;21085;-61
2021/10/13 04:41:51;;;;;;;26.05;23.22;;;;;;;15.71;64.26;100749.50;1732934;82;21022;-60
2021/10/13 04:44:17;;;;;;;27.67;22.07;;;;;;;15.71;64.33;100745.56;1734942;81;21046;-60
2021/10/13 04:46:44;;;;;;;24.30;21.75;;;;;;;15.69;64.25;100748.72;1731534;82;21101;-61
2021/10/13 04:49:10;;;;;;;24.52;21.93;;;;;;;15.67;64.36;100747.93;1737353;81;21074;-59
2021/10/13 04:51:37;;;;;;;25.60;22.27;;;;;;;15.66;64.32;100740.96;1737789;82;21506;-60
2021/10/13 04:54:03;;;;;;;25.02;22.40;;;;;;;15.63;64.50;100741.11;1738622;82;20999;-60
2021/10/13 04:56:30;;;;;;;25.95;21.85;;;;;;;15.64;64.60;100736.23;1738254;82;20987;-60
2021/10/13 04:58:56;;;;;;;28.23;22.67;;;;;;;15.65;64.59;100735.34;1735519;82;21090;-61
2021/10/13 05:01:23;;;;;;;24.80;22.25;;;;;;;15.65;64.60;100735.34;1735731;82;20982;-62
2021/10/13 05:03:49;;;;;;;23.83;21.42;;;;;;;15.66;64.61;100729.16;1735381;81;21502;-60
2021/10/13 05:06:16;;;;;;;24.10;21.33;;;;;;;15.66;64.63;100721.28;1735558;82;21010;-61
2021/10/13 05:08:44;;;;;;;25.37;22.55;;;;;;;15.67;64.57;100720.39;1736187;82;21010;-62
2021/10/13 05:11:10;;;;;;;24.65;21.45;;;;;;;15.65;64.53;100723.53;1738685;82;21014;-59
2021/10/13 05:13:37;;;;;;;23.60;20.60;;;;;;;15.64;64.66;100724.44;1738535;82;21510;-60
2021/10/13 05:16:04;;;;;;;26.75;22.27;;;;;;;15.63;64.62;100722.75;1735940;82;21081;-60
2021/10/13 05:18:30;;;;;;;29.55;23.15;;;;;;;15.62;64.68;100722.34;1737027;82;21487;-61
2021/10/13 05:20:58;;;;;;;26.33;22.05;;;;;;;15.58;64.70;100726.50;1737821;82;21034;-61
2021/10/13 05:23:24;;;;;;;26.25;23.32;;;;;;;15.55;64.83;100722.23;1738697;82;21014;-59
2021/10/13 05:25:50;;;;;;;25.77;23.00;;;;;;;15.51;64.88;100723.27;1738220;82;21042;-60
2021/10/13 05:28:17;;;;;;;30.25;23.83;;;;;;;15.49;64.99;100722.48;1735477;82;21050;-59
2021/10/13 05:30:45;;;;;;;28.85;23.98;;;;;;;15.47;64.98;100724.32;1735220;82;21582;-58
2021/10/13 05:33:12;;;;;;;25.77;23.00;;;;;;;15.45;65.07;100728.78;1735384;82;21029;-57
2021/10/13 05:35:39;;;;;;;25.95;23.22;;;;;;;15.43;65.17;100724.06;1735460;82;21003;-57
2021/10/13 05:38:05;;;;;;;28.62;23.87;;;;;;;15.42;65.20;100724.92;1736031;82;21026;-57
2021/10/13 05:40:32;;;;;;;25.75;22.90;;;;;;;15.40;65.20;100712.34;1738650;82;21054;-60
2021/10/13 05:42:58;;;;;;;27.73;23.60;;;;;;;15.38;65.11;100714.17;1734296;82;21026;-57
2021/10/13 05:45:25;;;;;;;30.70;25.40;;;;;;;15.34;65.20;100712.15;1725623;82;21037;-58
2021/10/13 05:47:51;;;;;;;30.32;26.25;;;;;;;15.32;65.26;100710.50;1738319;82;21055;-54
2021/10/13 05:50:19;;;;;;;34.23;25.72;;;;;;;15.26;65.29;100710.31;1738081;82;21067;-56
2021/10/13 05:52:46;;;;;;;28.70;25.70;;;;;;;15.24;65.37;100706.04;1735466;82;21038;-57
2021/10/13 05:55:12;;;;;;;28.47;25.35;;;;;;;15.21;65.36;100702.22;1737322;82;21006;-57
2021/10/13 05:57:39;;;;;;;31.17;26.60;;;;;;;15.17;65.42;100708.50;1733866;82;21003;-56
2021/10/13 06:00:08;;;;;;;31.85;26.60;;;;;;;15.14;65.44;100698.16;1748602;82;21003;-57
2021/10/13 06:02:36;;;;;;;28.60;25.50;;;;;;;15.10;65.48;100701.83;1736142;82;21590;-57
2021/10/13 06:05:04;;;;;;;32.70;27.13;;;;;;;15.05;65.53;100703.31;1737425;82;21065;-55
2021/10/13 06:07:31;;;;;;;29.72;26.00;;;;;;;15.04;65.59;100704.70;1733226;82;21101;-56
2021/10/13 06:09:58;;;;;;;31.17;25.77;;;;;;;15.00;65.63;100707.05;1740698;82;21023;-57
2021/10/13 06:12:25;;;;;;;30.02;25.57;;;;;;;14.98;65.68;100703.64;1737051;82;21517;-57
2021/10/13 06:14:51;;;;;;;29.45;25.48;;;;;;;14.95;65.70;100696.75;1735380;82;21038;-58
2021/10/13 06:17:20;;;;;;;30.17;26.80;;;;;;;14.92;65.74;100694.72;1735487;81;21050;-58
2021/10/13 06:19:46;;;;;;;29.95;26.55;;;;;;;14.91;65.78;100698.23;1735654;82;20987;-57
2021/10/13 06:22:13;;;;;;;29.37;26.23;;;;;;;14.89;65.79;100696.14;1735565;82;21037;-57
2021/10/13 06:24:40;;;;;;;32.83;26.35;;;;;;;14.87;65.78;100697.97;1737252;82;21498;-56
2021/10/13 06:27:07;;;;;;;30.97;27.58;;;;;;;14.85;65.79;100693.25;1738686;82;21070;-54
2021/10/13 06:29:34;;;;;;;30.50;27.17;;;;;;;14.82;65.77;100694.70;1734114;82;21038;-58
2021/10/13 06:32:01;;;;;;;32.42;26.95;;;;;;;14.81;65.98;100698.22;1726433;82;21041;-57
2021/10/13 06:34:28;;;;;;;30.12;26.10;;;;;;;14.80;66.00;100697.80;1734830;82;21038;-55
2021/10/13 06:36:54;;;;;;;32.60;26.80;;;;;;;14.80;66.03;100699.11;1736730;82;21515;-57
2021/10/13 06:39:21;;;;;;;29.63;25.88;;;;;;;14.81;66.02;100704.77;1737729;82;21018;-58
2021/10/13 06:41:48;;;;;;;28.05;25.05;;;;;;;14.80;66.02;100706.97;1738519;82;21026;-56
2021/10/13 06:44:15;;;;;;;30.17;25.43;;;;;;;14.79;66.02;100704.83;1738204;82;21007;-59
2021/10/13 06:46:43;;;;;;;30.27;26.20;;;;;;;14.77;66.05;100702.73;1728258;82;21009;-57
2021/10/13 06:49:09;;;;;;;28.55;24.82;;;;;;;14.76;66.06;100708.01;1735499;82;21523;-59
2021/10/13 06:51:36;;;;;;;29.25;25.88;;;;;;;14.75;65.96;100708.94;1734884;82;21007;-59
2021/10/13 06:54:03;;;;;;;30.65;27.40;;;;;;;14.73;66.12;100714.69;1737101;82;21055;-59
2021/10/13 06:56:30;;;;;;;35.03;27.95;;;;;;;14.71;66.09;100717.38;1738069;82;21510;-59
2021/10/13 06:58:56;;;;;;;33.50;27.70;;;;;;;14.72;66.24;100724.76;1738603;82;20999;-60
2021/10/13 07:01:23;;;;;;;29.10;25.97;;;;;;;14.72;66.29;100722.14;1732462;82;21098;-59
2021/10/13 07:03:50;;;;;;;33.10;27.05;;;;;;;14.72;66.32;100722.14;1735196;82;21019;-59
2021/10/13 07:06:16;;;;;;;34.30;27.70;;;;;;;14.73;66.37;100719.48;1735445;82;21015;-60
2021/10/13 07:08:43;;;;;;;30.50;26.70;;;;;;;14.73;66.18;100721.24;1736721;82;21130;-60
2021/10/13 07:11:11;;;;;;;35.48;27.98;;;;;;;14.74;66.20;100722.93;1738279;82;20999;-58
2021/10/13 07:13:38;;;;;;;32.65;27.37;;;;;;;14.72;66.16;100707.73;1738316;82;21521;-58
2021/10/13 07:16:05;;;;;;;29.23;25.52;;;;;;;14.69;66.20;100717.41;1736075;82;21069;-59
2021/10/13 07:18:32;;;;;;;30.20;26.87;;;;;;;14.69;66.26;100716.11;1737241;82;21049;-58
2021/10/13 07:20:59;;;;;;;32.83;27.45;;;;;;;14.69;66.27;100710.87;1737883;82;20999;-59
2021/10/13 07:23:26;;;;;;;30.52;27.22;;;;;;;14.69;66.30;100711.34;1738655;82;21475;-58
2021/10/13 07:25:53;;;;;;;38.67;29.12;;;;;;;14.67;66.35;100714.00;1738449;82;21026;-60
2021/10/13 07:28:19;;;;;;;30.35;26.57;;;;;;;14.68;66.59;100713.11;1736095;82;21019;-58
2021/10/13 07:30:46;;;;;;;31.82;27.60;;;;;;;14.71;66.54;100712.59;1735822;82;20995;-59
2021/10/13 07:33:13;;;;;;;31.10;27.80;;;;;;;14.72;66.58;100715.14;1735403;82;21035;-59
2021/10/13 07:35:41;;;;;;;35.55;26.90;;;;;;;14.73;66.62;100710.77;1735967;82;21014;-58
2021/10/13 07:38:12;;;;;;;33.88;26.55;;;;;;;14.73;66.69;100710.77;1735570;82;20970;-58
2021/10/13 07:40:39;;;;;;;35.10;28.00;;;;;;;14.75;66.65;100703.25;1731996;82;22133;-57
2021/10/13 07:43:07;;;;;;;30.52;27.22;;;;;;;14.76;66.60;100702.77;1738555;82;21054;-57
2021/10/13 07:45:34;;;;;;;32.38;27.15;;;;;;;14.76;66.62;100700.15;1735207;82;21034;-58
2021/10/13 07:48:02;;;;;;;33.20;28.30;;;;;;;14.76;66.58;100697.53;1737615;82;21047;-57
2021/10/13 07:50:29;;;;;;;31.30;27.77;;;;;;;14.76;66.50;100706.70;1738663;82;21006;-57
2021/10/13 07:52:56;;;;;;;33.78;29.55;;;;;;;14.75;66.53;100703.25;1738505;82;21031;-57
2021/10/13 07:55:22;;;;;;;32.23;28.05;;;;;;;14.75;66.47;100712.86;1736643;82;21089;-57
2021/10/13 07:57:49;;;;;;;36.80;29.12;;;;;;;14.74;66.56;100712.45;1735314;82;21018;-59
2021/10/13 08:02:45;;;;;;;32.65;29.15;;;;;;;14.72;66.48;100706.42;1664949;85;21143;-58
2021/10/13 08:05:11;;;;;;;35.05;31.23;;;;;;;14.71;66.56;100712.59;1670658;85;21024;-56
2021/10/13 08:07:39;;;;;;;39.42;34.78;;;;;;;14.69;66.40;100714.80;1672447;85;21024;-58
2021/10/13 08:10:06;;;;;;;35.30;31.35;;;;;;;14.67;66.38;100710.08;1670751;85;20997;-54
2021/10/13 08:12:34;;;;;;;36.58;30.55;;;;;;;14.66;66.45;100718.00;1668523;85;21103;-57
2021/10/13 08:15:02;;;;;;;36.15;31.70;;;;;;;14.66;66.49;100720.62;1661039;84;21056;-57
2021/10/13 08:17:31;;;;;;;39.78;32.73;;;;;;;14.64;66.49;100719.38;1672280;85;21048;-55
2021/10/13 08:20:01;;;;;;;38.28;33.55;;;;;;;14.64;66.62;100719.83;1670324;85;21576;-55
2021/10/13 08:22:27;;;;;;;37.08;32.33;;;;;;;14.63;66.59;100728.13;1669699;85;21068;-53
2021/10/13 08:24:53;;;;;;;38.25;31.25;;;;;;;14.64;66.70;100727.69;1669859;85;21571;-55
2021/10/13 08:27:20;;;;;;;41.20;33.20;;;;;;;14.63;66.80;100725.52;1669556;85;21076;-56
2021/10/13 08:29:46;;;;;;;37.75;32.45;;;;;;;14.63;66.86;100730.75;1670012;85;21623;-55
2021/10/13 08:32:14;;;;;;;37.10;32.60;;;;;;;14.65;66.90;100728.92;1666910;85;21025;-57
2021/10/13 08:34:40;;;;;;;37.17;32.10;;;;;;;14.66;67.05;100725.41;1672810;85;21071;-56
2021/10/13 08:37:08;;;;;;;34.88;30.82;;;;;;;14.68;67.06;100726.20;1668543;85;21024;-53
2021/10/13 08:39:34;;;;;;;35.48;31.62;;;;;;;14.69;67.18;100717.41;1678219;85;21103;-55
2021/10/13 08:42:01;;;;;;;36.95;32.95;;;;;;;14.75;67.08;100727.27;1678690;85;21082;-55
2021/10/13 08:44:28;;;;;;;38.28;34.03;;;;;;;14.77;67.02;100730.69;1679995;85;21064;-54
2021/10/13 08:46:55;;;;;;;40.03;34.75;;;;;;;14.78;66.99;100732.37;1679153;85;21068;-54
2021/10/13 08:49:23;;;;;;;37.33;33.18;;;;;;;14.78;66.91;100731.06;1679880;85;21064;-54
2021/10/13 08:51:50;;;;;;;37.95;33.83;;;;;;;14.78;67.00;100737.61;1680659;85;21044;-55
2021/10/13 08:54:18;;;;;;;41.23;34.58;;;;;;;14.79;67.02;100741.95;1682980;85;21008;-57
2021/10/13 08:56:47;;;;;;;38.05;33.67;;;;;;;14.80;67.00;100748.88;1682462;85;21036;-55
2021/10/13 08:59:44;;;;;;;40.17;34.15;;;;;;;14.81;67.02;100753.22;1699888;83;21511;-55
2021/10/13 09:02:11;;;;;;;41.13;35.23;;;;;;;14.82;66.97;100760.19;1737697;82;21034;-53
2021/10/13 09:04:38;;;;;;;42.75;36.25;;;;;;;14.81;66.93;100755.39;1738402;82;21058;-52
2021/10/13 09:07:05;;;;;;;42.65;35.25;;;;;;;14.81;66.96;100758.46;1738448;82;21069;-53
2021/10/13 09:09:32;;;;;;;41.02;34.15;;;;;;;14.81;66.91;100755.39;1738509;81;21038;-52
2021/10/13 09:12:00;;;;;;;37.08;33.05;;;;;;;14.82;67.04;100756.25;1739585;82;21565;-54
2021/10/13 09:14:31;;;;;;;40.38;34.20;;;;;;;14.82;67.10;100760.19;1737314;82;21053;-51
2021/10/13 09:17:03;;;;;;;39.90;33.55;;;;;;;14.83;67.01;100756.64;1734793;82;20990;-51
2021/10/13 09:19:45;;;;;;;38.13;33.00;;;;;;;14.82;66.96;100762.81;1738642;82;21010;-53
2021/10/13 09:22:15;;;;;;;36.10;32.00;;;;;;;14.82;67.01;100759.70;1738725;81;21019;-53
2021/10/13 09:24:50;;;;;;;40.50;33.53;;;;;;;14.83;67.05;100765.36;1738453;81;21058;-54
2021/10/13 09:27:24;;;;;;;46.30;37.05;;;;;;;14.83;66.98;100759.25;1668365;86;21054;-55
2021/10/13 09:30:01;;;;;;;41.48;35.03;;;;;;;14.83;66.82;100754.88;1668058;86;21126;-52
2021/10/13 09:32:28;;;;;;;40.98;36.08;;;;;;;14.81;66.79;100767.63;1669567;86;21018;-55
2021/10/13 09:34:59;;;;;;;40.15;33.95;;;;;;;14.78;66.80;100758.56;1669198;86;21116;-55
2021/10/13 09:37:48;;;;;;;38.90;32.70;;;;;;;14.75;66.92;100764.80;1669997;86;21018;-56
2021/10/13 09:40:30;;;;;;;38.90;31.52;;;;;;;14.75;66.97;100764.80;1616843;88;21025;-56
2021/10/13 09:43:00;;;;;;;40.30;33.18;;;;;;;14.73;66.95;100758.77;1604778;89;21519;-58
2021/10/13 09:45:33;;;;;;;34.80;29.52;;;;;;;14.73;66.95;100760.08;1606844;89;21022;-52
2021/10/13 09:48:05;;;;;;;33.23;26.55;;;;;;;14.72;66.96;100762.28;1606812;89;21054;-54
2021/10/13 09:50:50;;;;;;;35.92;31.15;;;;;;;14.72;66.84;100767.97;1606098;89;21538;-55
2021/10/13 09:53:21;;;;;;;40.08;32.70;;;;;;;14.71;66.97;100761.05;1614314;89;21041;-53
2021/10/13 09:55:48;;;;;;;38.13;33.90;;;;;;;14.71;67.00;100768.45;1615516;89;21085;-56
2021/10/13 09:58:29;;;;;;;38.55;31.68;;;;;;;14.71;66.99;100764.97;1615240;89;21117;-54
2021/10/13 10:01:14;;;;;;;37.10;31.40;;;;;;;14.70;66.92;100766.73;1539976;93;21176;-53
2021/10/13 10:03:43;;;;;;;35.20;31.27;;;;;;;14.66;66.83;100764.70;1511910;95;21101;-53
2021/10/13 10:06:10;;;;;;;37.17;31.25;;;;;;;14.63;66.85;100767.89;1485831;97;21072;-52
2021/10/13 10:08:59;;;;;;;32.63;27.60;;;;;;;14.63;66.95;100767.41;1462778;98;21653;-53
2021/10/13 10:11:40;;;;;;;31.35;27.98;;;;;;;14.63;66.87;100771.34;1463043;98;21088;-52
2021/10/13 10:14:36;;;;;;;32.20;26.87;;;;;;;14.62;66.92;100764.41;1462986;98;21104;-55
2021/10/13 10:17:05;;;;;;;31.40;26.60;;;;;;;14.57;67.04;100771.58;1462778;98;21672;-53
2021/10/13 10:19:44;;;;;;;29.32;25.45;;;;;;;14.57;66.89;100763.72;1457909;97;21133;-52
2021/10/13 10:22:14;;;;;;;27.93;23.52;;;;;;;14.56;66.92;100769.02;1454963;98;21129;-53
2021/10/13 10:24:52;;;;;;;26.95;23.15;;;;;;;14.56;66.93;100772.95;1517027;94;21069;-55
2021/10/13 10:27:30;;;;;;;25.45;22.42;;;;;;;14.55;66.91;100759.00;1501072;96;21158;-52
2021/10/13 10:30:05;;;;;;;26.12;23.32;;;;;;;14.38;67.29;100761.42;1501267;96;21051;-52
2021/10/13 10:32:31;;;;;;;28.95;24.00;;;;;;;14.43;67.22;100769.07;1501433;96;21585;-55
2021/10/13 10:35:09;;;;;;;26.75;23.70;;;;;;;14.44;67.15;100762.50;1501266;96;21067;-55
2021/10/13 10:37:51;;;;;;;26.93;23.20;;;;;;;14.43;66.98;100767.31;1501248;96;21090;-57
2021/10/13 10:40:32;;;;;;;27.13;24.30;;;;;;;14.41;67.09;100766.52;1494503;94;21149;-54
2021/10/13 10:43:20;;;;;;;28.62;23.42;;;;;;;14.39;67.05;100773.58;1550218;92;21133;-56
2021/10/13 10:45:57;;;;;;;26.15;23.07;;;;;;;14.39;67.05;100776.20;1550095;92;21809;-56
2021/10/13 10:48:26;;;;;;;26.40;23.60;;;;;;;14.29;67.22;100776.14;1546312;91;21250;-56
2021/10/13 10:50:57;;;;;;;26.52;23.62;;;;;;;14.19;67.67;100774.73;1574427;91;21607;-58
2021/10/13 10:53:31;;;;;;;28.77;23.77;;;;;;;14.31;67.35;100774.77;1574702;91;21105;-59
2021/10/13 10:56:23;;;;;;;29.42;24.18;;;;;;;14.41;66.93;100778.30;1571217;91;21572;-58
2021/10/13 10:59:11;;;;;;;27.02;24.05;;;;;;;14.43;66.93;100775.62;1620764;88;21053;-59
2021/10/13 11:01:42;;;;;;;28.47;23.35;;;;;;;14.45;66.99;100772.04;1722613;82;21066;-58
2021/10/13 11:04:12;;;;;;;27.07;24.30;;;;;;;14.45;66.87;100777.28;1730953;82;21030;-58
2021/10/13 11:06:39;;;;;;;28.60;24.18;;;;;;;14.46;66.75;100784.69;1728400;82;21014;-58
2021/10/13 11:09:11;;;;;;;26.37;23.15;;;;;;;14.45;66.59;100786.44;1731027;82;21031;-56
2021/10/13 11:11:45;;;;;;;28.17;25.15;;;;;;;14.45;66.74;100781.20;1730796;82;20995;-58
2021/10/13 11:14:15;;;;;;;27.52;24.45;;;;;;;14.45;66.61;100777.28;1726881;82;21057;-59
2021/10/13 11:16:54;;;;;;;24.77;22.05;;;;;;;14.45;66.62;100787.75;1720316;82;21046;-59
2021/10/13 11:19:25;;;;;;;26.45;23.77;;;;;;;14.47;66.70;100793.78;1727146;82;21459;-59
2021/10/13 11:21:58;;;;;;;30.97;25.30;;;;;;;14.48;66.67;100792.89;1710430;83;21058;-58
2021/10/13 11:24:24;;;;;;;32.90;27.77;;;;;;;14.49;66.58;100803.74;1679157;85;21010;-58